createdAt,value
2018-07-29T00:01:50.420Z,97925.91
2018-07-29T00:04:19.768Z,97927.12
2018-07-29T00:06:49.460Z,97936.24
2018-07-29T00:09:18.825Z,97925.12
2018-07-29T00:11:48.188Z,97930.48
2018-07-29T00:14:17.539Z,97935.46
2018-07-29T00:16:46.904Z,97934.48
2018-07-29T00:19:16.259Z,97930.31
2018-07-29T00:21:45.644Z,97936.39
2018-07-29T00:24:14.997Z,97933.14
2018-07-29T00:26:44.367Z,97936.03
2018-07-29T00:29:13.724Z,97941.28
2018-07-29T00:31:43.106Z,97944.95
2018-07-29T00:34:12.472Z,97954.40
2018-07-29T00:36:41.809Z,97953.28
2018-07-29T00:39:11.200Z,97954.58
2018-07-29T00:41:40.548Z,97949.38
2018-07-29T00:44:09.888Z,97952.03
2018-07-29T00:46:39.232Z,97962.35
2018-07-29T00:49:08.724Z,97962.30
2018-07-29T00:51:38.080Z,97957.08
2018-07-29T00:54:07.471Z,97963.38
2018-07-29T00:56:36.813Z,97966.87
2018-07-29T00:59:06.155Z,97970.39
2018-07-29T01:01:35.495Z,97971.23
2018-07-29T01:04:04.868Z,97970.98
2018-07-29T01:06:34.249Z,97973.45
2018-07-29T01:09:04.416Z,97975.34
2018-07-29T01:11:33.808Z,97973.14
2018-07-29T01:14:03.186Z,97976.66
2018-07-29T01:16:32.564Z,97975.91
2018-07-29T01:19:01.994Z,97972.39
2018-07-29T01:21:31.358Z,97973.28
2018-07-29T01:24:00.822Z,97971.86
2018-07-29T01:26:30.169Z,97973.16
2018-07-29T01:28:59.540Z,97969.51
2018-07-29T01:31:28.915Z,97969.66
2018-07-29T01:33:58.390Z,97960.48
2018-07-29T01:36:27.858Z,97965.68
2018-07-29T01:38:57.309Z,97962.45
2018-07-29T01:41:26.703Z,97968.61
2018-07-29T01:43:56.178Z,97965.30
2018-07-29T01:46:25.603Z,97970.42
2018-07-29T01:48:55.059Z,97965.09
2018-07-29T01:51:24.506Z,97963.16
2018-07-29T01:53:53.945Z,97957.17
2018-07-29T01:56:23.348Z,97958.59
2018-07-29T01:58:52.788Z,97958.92
2018-07-29T02:01:22.232Z,97952.36
2018-07-29T02:03:51.761Z,97957.94
2018-07-29T02:06:21.295Z,97958.40
2018-07-29T02:08:50.694Z,97958.98
2018-07-29T02:11:20.134Z,97955.86
2018-07-29T02:13:49.563Z,97960.14
2018-07-29T02:16:18.988Z,97958.70
2018-07-29T02:18:48.462Z,97957.14
2018-07-29T02:21:17.891Z,97959.81
2018-07-29T02:23:47.336Z,97958.70
2018-07-29T02:26:16.755Z,97959.13
2018-07-29T02:28:46.163Z,97957.87
2018-07-29T02:31:15.600Z,97957.69
2018-07-29T02:33:45.028Z,97962.92
2018-07-29T02:36:14.479Z,97958.11
2018-07-29T02:38:43.923Z,97958.54
2018-07-29T02:41:13.366Z,97959.80
2018-07-29T02:43:42.775Z,97957.09
2018-07-29T02:46:12.188Z,97960.33
2018-07-29T02:48:41.632Z,97962.73
2018-07-29T02:51:11.172Z,97963.84
2018-07-29T02:53:40.618Z,97965.75
2018-07-29T02:56:10.066Z,97957.92
2018-07-29T02:58:39.496Z,97958.41
2018-07-29T03:01:09.079Z,97955.88
2018-07-29T03:03:38.547Z,97958.13
2018-07-29T03:06:08.144Z,97955.83
2018-07-29T03:08:37.608Z,97953.87
2018-07-29T03:11:07.312Z,97948.72
2018-07-29T03:13:36.760Z,97952.95
2018-07-29T03:16:06.239Z,97956.35
2018-07-29T03:18:35.687Z,97958.37
2018-07-29T03:21:05.138Z,97961.09
2018-07-29T03:23:34.576Z,97968.87
2018-07-29T03:26:04.106Z,97958.77
2018-07-29T03:28:33.570Z,97964.34
2018-07-29T03:31:03.043Z,97965.98
2018-07-29T03:33:32.443Z,97963.05
2018-07-29T03:36:01.895Z,97973.13
2018-07-29T03:38:31.359Z,97967.44
2018-07-29T03:41:00.770Z,97965.80
2018-07-29T03:43:30.262Z,97971.61
2018-07-29T03:45:59.732Z,97969.12
2018-07-29T03:48:29.168Z,97963.66
2018-07-29T03:50:58.608Z,97964.50
2018-07-29T03:53:28.058Z,97964.43
2018-07-29T03:55:57.498Z,97957.52
2018-07-29T03:58:26.887Z,97961.52
2018-07-29T04:00:56.468Z,97955.38
2018-07-29T04:03:25.931Z,97966.66
2018-07-29T04:05:55.651Z,97962.49
2018-07-29T04:08:25.100Z,97958.98
2018-07-29T04:10:54.557Z,97959.33
2018-07-29T04:13:24.122Z,97957.74
2018-07-29T04:15:53.564Z,97958.97
2018-07-29T04:18:23.072Z,97973.82
2018-07-29T04:20:52.531Z,97978.42
2018-07-29T04:23:21.939Z,97979.76
2018-07-29T04:25:51.350Z,97981.36
2018-07-29T04:28:20.814Z,97982.36
2018-07-29T04:30:50.350Z,97983.92
2018-07-29T04:33:19.775Z,97982.50
2018-07-29T04:35:49.249Z,97980.03
2018-07-29T04:38:18.707Z,97981.41
2018-07-29T04:40:48.183Z,97984.27
2018-07-29T04:43:17.658Z,97986.41
2018-07-29T04:45:47.145Z,97988.88
2018-07-29T04:48:16.610Z,97987.34
2018-07-29T04:50:46.057Z,97991.31
2018-07-29T04:53:15.454Z,97990.50
2018-07-29T04:55:44.863Z,97992.05
2018-07-29T04:58:14.001Z,97991.28
2018-07-29T05:00:43.519Z,97989.02
2018-07-29T05:03:12.952Z,97991.37
2018-07-29T05:05:42.407Z,97986.17
2018-07-29T05:08:11.812Z,97988.45
2018-07-29T05:10:41.305Z,97985.38
2018-07-29T05:13:10.769Z,97984.72
2018-07-29T05:15:40.416Z,97980.57
2018-07-29T05:18:09.854Z,97976.70
2018-07-29T05:20:39.275Z,97973.77
2018-07-29T05:23:08.707Z,97968.82
2018-07-29T05:25:38.279Z,97966.22
2018-07-29T05:28:08.399Z,97967.78
2018-07-29T05:30:37.798Z,97973.77
2018-07-29T05:33:07.256Z,97972.13
2018-07-29T05:35:36.742Z,97972.75
2018-07-29T05:38:06.274Z,97981.11
2018-07-29T05:40:35.707Z,97981.86
2018-07-29T05:43:05.154Z,97977.98
2018-07-29T05:45:34.274Z,97981.59
2018-07-29T05:48:03.741Z,97983.05
2018-07-29T05:50:33.240Z,97974.87
2018-07-29T05:53:02.683Z,97983.52
2018-07-29T05:55:32.213Z,97982.82
2018-07-29T05:58:01.699Z,97979.66
2018-07-29T06:00:31.150Z,97982.45
2018-07-29T06:03:00.606Z,97980.50
2018-07-29T06:05:30.097Z,97984.45
2018-07-29T06:07:59.620Z,97984.53
2018-07-29T06:10:29.122Z,97984.58
2018-07-29T06:13:02.230Z,97983.53
2018-07-29T06:15:31.752Z,97986.57
2018-07-29T06:18:01.187Z,97990.26
2018-07-29T06:20:30.680Z,97990.31
2018-07-29T06:23:00.187Z,97994.76
2018-07-29T06:25:29.683Z,97997.03
2018-07-29T06:27:59.142Z,97997.71
2018-07-29T06:30:28.634Z,97999.98
2018-07-29T06:32:58.150Z,98004.73
2018-07-29T06:35:27.612Z,98009.02
2018-07-29T06:37:57.174Z,98002.81
2018-07-29T06:40:26.752Z,98008.18
2018-07-29T06:42:56.219Z,98000.30
2018-07-29T06:45:25.788Z,97997.01
2018-07-29T06:47:55.291Z,97993.35
2018-07-29T06:50:24.803Z,97988.91
2018-07-29T06:52:54.390Z,97986.12
2018-07-29T06:55:23.841Z,97984.72
2018-07-29T06:57:53.322Z,97983.41
2018-07-29T07:00:22.811Z,97984.42
2018-07-29T07:02:52.284Z,97989.48
2018-07-29T07:05:21.791Z,97987.44
2018-07-29T07:07:51.230Z,97989.52
2018-07-29T07:10:20.729Z,97982.64
2018-07-29T07:12:50.226Z,97979.18
2018-07-29T07:15:19.687Z,97978.98
2018-07-29T07:17:49.112Z,97987.72
2018-07-29T07:20:18.552Z,97999.08
2018-07-29T07:22:48.011Z,98002.93
2018-07-29T07:25:18.371Z,97996.92
2018-07-29T07:27:47.830Z,97999.95
2018-07-29T07:30:17.379Z,97998.80
2018-07-29T07:32:46.947Z,97994.57
2018-07-29T07:35:16.359Z,97994.14
2018-07-29T07:37:45.803Z,97995.34
2018-07-29T07:40:15.307Z,97994.95
2018-07-29T07:42:44.750Z,97995.52
2018-07-29T07:45:14.352Z,97993.11
2018-07-29T07:47:43.771Z,97986.09
2018-07-29T07:50:13.289Z,97987.13
2018-07-29T07:52:42.870Z,97989.98
2018-07-29T07:55:12.307Z,97990.26
2018-07-29T07:57:41.750Z,97987.98
2018-07-29T08:00:11.304Z,97982.51
2018-07-29T08:02:40.735Z,97981.89
2018-07-29T08:05:10.259Z,97977.08
2018-07-29T08:07:39.850Z,97985.09
2018-07-29T08:10:09.369Z,97977.18
2018-07-29T08:12:39.193Z,97971.91
2018-07-29T08:15:08.957Z,97970.10
2018-07-29T08:17:38.498Z,97978.92
2018-07-29T08:20:07.971Z,97974.92
2018-07-29T08:22:37.510Z,97975.84
2018-07-29T08:25:07.103Z,97976.63
2018-07-29T08:27:36.595Z,97973.84
2018-07-29T08:30:06.983Z,97970.35
2018-07-29T08:32:36.472Z,97970.71
2018-07-29T08:35:06.103Z,97964.35
2018-07-29T08:37:35.630Z,97968.40
2018-07-29T08:40:05.166Z,97958.75
2018-07-29T08:42:34.719Z,97959.67
2018-07-29T08:45:04.236Z,97960.78
2018-07-29T08:47:33.798Z,97963.94
2018-07-29T08:50:03.389Z,97961.64
2018-07-29T08:52:33.032Z,97962.22
2018-07-29T08:55:02.487Z,97965.00
2018-07-29T08:57:31.617Z,97962.73
2018-07-29T09:00:01.096Z,97959.63
2018-07-29T09:02:30.616Z,97958.84
2018-07-29T09:05:00.101Z,97959.91
2018-07-29T09:07:29.587Z,97963.36
2018-07-29T09:09:59.110Z,97968.85
2018-07-29T09:12:28.360Z,97962.61
2018-07-29T09:14:57.989Z,97961.34
2018-07-29T09:17:27.564Z,97962.94
2018-07-29T09:19:57.014Z,97963.69
2018-07-29T09:22:26.526Z,97959.52
2018-07-29T09:24:56.063Z,97950.98
2018-07-29T09:27:25.640Z,97952.94
2018-07-29T09:29:55.172Z,97949.59
2018-07-29T09:32:24.715Z,97950.54
2018-07-29T09:34:54.178Z,97950.02
2018-07-29T09:37:23.743Z,97948.22
2018-07-29T09:39:53.679Z,97944.81
2018-07-29T09:42:23.226Z,97946.02
2018-07-29T09:44:52.847Z,97945.25
2018-07-29T09:47:22.306Z,97946.06
2018-07-29T09:49:51.850Z,97948.06
2018-07-29T09:52:21.324Z,97936.94
2018-07-29T09:54:50.880Z,97937.87
2018-07-29T09:57:20.349Z,97934.13
2018-07-29T09:59:49.867Z,97931.11
2018-07-29T10:02:19.371Z,97931.16
2018-07-29T10:04:48.830Z,97925.84
2018-07-29T10:07:18.391Z,97931.29
2018-07-29T10:09:47.916Z,97915.19
2018-07-29T10:12:17.353Z,97916.00
2018-07-29T10:14:46.885Z,97920.09
2018-07-29T10:17:16.353Z,97917.09
2018-07-29T10:19:45.882Z,97918.01
2018-07-29T10:22:15.386Z,97916.53
2018-07-29T10:24:45.168Z,97918.45
2018-07-29T10:27:14.659Z,97920.12
2018-07-29T10:29:44.304Z,97927.92
2018-07-29T10:32:13.751Z,97923.59
2018-07-29T10:34:43.292Z,97932.11
2018-07-29T10:37:12.810Z,97930.79
2018-07-29T10:39:42.380Z,97917.70
2018-07-29T10:42:11.805Z,97921.50
2018-07-29T10:44:41.326Z,97925.73
2018-07-29T10:47:10.881Z,97923.78
2018-07-29T10:49:40.096Z,97916.34
2018-07-29T10:52:09.630Z,97918.75
2018-07-29T10:54:39.230Z,97914.97
2018-07-29T10:57:08.398Z,97909.34
2018-07-29T10:59:37.929Z,97913.80
2018-07-29T11:02:07.443Z,97905.95
2018-07-29T11:04:36.992Z,97905.14
2018-07-29T11:07:06.658Z,97901.47
2018-07-29T11:09:36.139Z,97900.30
2018-07-29T11:12:05.675Z,97905.63
2018-07-29T11:14:35.244Z,97898.61
2018-07-29T11:17:05.122Z,97899.64
2018-07-29T11:19:34.744Z,97898.86
2018-07-29T11:22:04.212Z,97903.48
2018-07-29T11:24:33.644Z,97895.77
2018-07-29T11:27:03.140Z,97895.31
2018-07-29T11:29:32.718Z,97897.83
2018-07-29T11:32:02.156Z,97894.64
2018-07-29T11:34:31.644Z,97893.41
2018-07-29T11:37:01.191Z,97897.30
2018-07-29T11:39:30.679Z,97895.05
2018-07-29T11:42:00.236Z,97890.41
2018-07-29T11:44:29.771Z,97885.28
2018-07-29T11:46:59.319Z,97876.58
2018-07-29T11:49:28.824Z,97829.44
2018-07-29T11:51:58.313Z,97889.48
2018-07-29T11:54:28.002Z,97881.36
2018-07-29T11:56:57.431Z,97873.84
2018-07-29T11:59:26.891Z,97877.34
2018-07-29T12:01:56.443Z,97881.59
2018-07-29T12:04:26.029Z,97887.58
2018-07-29T12:06:55.527Z,97886.59
2018-07-29T12:09:25.058Z,97884.49
2018-07-29T12:11:54.473Z,97874.66
2018-07-29T12:14:24.021Z,97877.34
2018-07-29T12:16:53.426Z,97881.14
2018-07-29T12:19:23.071Z,97873.14
2018-07-29T12:21:52.664Z,97878.66
2018-07-29T12:24:22.115Z,97866.00
2018-07-29T12:26:51.563Z,97875.37
2018-07-29T12:29:21.113Z,97869.84
2018-07-29T12:31:50.667Z,97865.27
2018-07-29T12:34:20.144Z,97863.05
2018-07-29T12:36:50.031Z,97863.12
2018-07-29T12:39:19.630Z,97858.45
2018-07-29T12:41:49.093Z,97861.56
2018-07-29T12:44:18.735Z,97852.06
2018-07-29T12:46:48.428Z,97848.14
2018-07-29T12:49:17.891Z,97847.88
2018-07-29T12:51:47.324Z,97850.36
2018-07-29T12:54:16.822Z,97843.64
2018-07-29T12:56:46.517Z,97841.53
2018-07-29T12:59:15.985Z,97843.27
2018-07-29T13:01:45.622Z,97837.22
2018-07-29T13:04:15.195Z,97840.48
2018-07-29T13:06:44.793Z,97839.58
2018-07-29T13:09:20.643Z,97840.83
2018-07-29T13:11:50.225Z,97840.37
2018-07-29T13:14:19.705Z,97831.64
2018-07-29T13:16:49.469Z,97831.52
2018-07-29T13:19:18.990Z,97831.64
2018-07-29T13:21:48.539Z,97831.75
2018-07-29T13:24:18.083Z,97826.09
2018-07-29T13:26:47.879Z,97824.51
2018-07-29T13:29:17.417Z,97816.92
2018-07-29T13:31:46.923Z,97819.13
2018-07-29T13:34:16.455Z,97822.97
2018-07-29T13:36:45.948Z,97821.75
2018-07-29T13:39:15.536Z,97818.60
2018-07-29T13:41:45.135Z,97809.42
2018-07-29T13:44:14.634Z,97809.53
2018-07-29T13:46:44.239Z,97812.59
2018-07-29T13:49:13.886Z,97809.12
2018-07-29T13:51:43.274Z,97809.65
2018-07-29T13:54:12.694Z,97806.53
2018-07-29T13:56:42.207Z,97810.33
2018-07-29T13:59:11.721Z,97815.73
2018-07-29T14:01:41.244Z,97804.54
2018-07-29T14:04:10.683Z,97794.44
2018-07-29T14:06:40.227Z,97797.82
2018-07-29T14:09:11.863Z,97794.09
2018-07-29T14:11:41.758Z,97796.38
2018-07-29T14:14:11.311Z,97787.56
2018-07-29T14:16:40.866Z,97779.77
2018-07-29T14:19:10.499Z,97783.27
2018-07-29T14:21:40.065Z,97784.41
2018-07-29T14:24:09.592Z,97776.49
2018-07-29T14:26:39.114Z,97788.27
2018-07-29T14:29:08.798Z,97783.23
2018-07-29T14:31:38.290Z,97781.95
2018-07-29T14:34:08.343Z,97776.62
2018-07-29T14:36:37.819Z,97782.09
2018-07-29T14:39:10.306Z,97771.12
2018-07-29T14:41:39.813Z,97776.61
2018-07-29T14:44:09.564Z,97771.61
2018-07-29T14:46:39.296Z,97768.27
2018-07-29T14:49:08.846Z,97769.42
2018-07-29T14:51:38.299Z,97772.08
2018-07-29T14:54:07.808Z,97766.57
2018-07-29T14:56:37.365Z,97765.48
2018-07-29T14:59:06.800Z,97755.13
2018-07-29T15:01:36.246Z,97750.53
2018-07-29T15:04:06.177Z,97744.83
2018-07-29T15:06:35.658Z,97755.63
2018-07-29T15:09:08.987Z,97756.11
2018-07-29T15:11:38.618Z,97748.78
2018-07-29T15:14:08.112Z,97751.30
2018-07-29T15:16:37.679Z,97752.59
2018-07-29T15:19:07.307Z,97754.55
2018-07-29T15:21:36.950Z,97749.58
2018-07-29T15:24:06.467Z,97749.61
2018-07-29T15:26:35.991Z,97753.55
2018-07-29T15:29:05.785Z,97756.36
2018-07-29T15:31:35.327Z,97750.91
2018-07-29T15:34:04.893Z,97751.87
2018-07-29T15:36:34.375Z,97748.45
2018-07-29T15:39:04.920Z,97744.78
2018-07-29T15:41:34.368Z,97742.67
2018-07-29T15:44:04.215Z,97737.39
2018-07-29T15:46:34.086Z,97736.91
2018-07-29T15:49:03.663Z,97731.89
2018-07-29T15:51:33.190Z,97733.64
2018-07-29T15:54:02.661Z,97732.17
2018-07-29T15:56:32.232Z,97725.95
2018-07-29T15:59:01.735Z,97725.09
2018-07-29T16:01:31.233Z,97720.97
2018-07-29T16:04:00.902Z,97725.50
2018-07-29T16:06:30.521Z,97722.09
2018-07-29T16:08:59.986Z,97724.50
2018-07-29T16:11:29.551Z,97720.78
2018-07-29T16:13:59.147Z,97723.48
2018-07-29T16:16:28.634Z,97724.19
2018-07-29T16:18:58.129Z,97718.93
2018-07-29T16:21:27.688Z,97718.60
2018-07-29T16:23:57.551Z,97720.42
2018-07-29T16:26:27.140Z,97723.28
2018-07-29T16:28:56.700Z,97717.41
2018-07-29T16:31:26.211Z,97721.48
2018-07-29T16:33:55.684Z,97719.73
2018-07-29T16:36:25.222Z,97721.92
2018-07-29T16:38:54.907Z,97722.23
2018-07-29T16:41:24.584Z,97715.50
2018-07-29T16:43:54.089Z,97722.24
2018-07-29T16:46:23.731Z,97720.06
2018-07-29T16:48:53.312Z,97722.65
2018-07-29T16:51:22.793Z,97723.16
2018-07-29T16:53:52.234Z,97726.72
2018-07-29T16:56:22.055Z,97730.75
2018-07-29T16:58:51.503Z,97731.35
2018-07-29T17:01:20.989Z,97729.89
2018-07-29T17:03:50.448Z,97729.14
2018-07-29T17:06:19.888Z,97737.72
2018-07-29T17:08:49.350Z,97735.97
2018-07-29T17:11:18.819Z,97736.67
2018-07-29T17:13:48.259Z,97728.55
2018-07-29T17:16:17.731Z,97736.78
2018-07-29T17:18:47.377Z,97734.68
2018-07-29T17:21:16.870Z,97737.22
2018-07-29T17:23:46.369Z,97734.85
2018-07-29T17:26:15.823Z,97734.14
2018-07-29T17:28:45.245Z,97741.50
2018-07-29T17:31:14.714Z,97741.95
2018-07-29T17:33:44.152Z,97741.48
2018-07-29T17:36:13.643Z,97745.20
2018-07-29T17:38:43.175Z,97739.42
2018-07-29T17:41:12.696Z,97747.53
2018-07-29T17:43:42.172Z,97744.74
2018-07-29T17:46:11.607Z,97749.80
2018-07-29T17:48:41.147Z,97753.76
2018-07-29T17:51:10.603Z,97750.47
2018-07-29T17:53:40.035Z,97749.67
2018-07-29T17:56:09.535Z,97751.87
2018-07-29T17:58:39.198Z,97752.04
2018-07-29T18:01:08.666Z,97744.22
2018-07-29T18:03:38.179Z,97753.39
2018-07-29T18:06:07.836Z,97745.73
2018-07-29T18:08:37.302Z,97749.96
2018-07-29T18:11:06.831Z,97749.62
2018-07-29T18:13:36.571Z,97757.05
2018-07-29T18:16:06.083Z,97753.85
2018-07-29T18:18:35.535Z,97758.75
2018-07-29T18:21:05.034Z,97755.81
2018-07-29T18:23:34.491Z,97755.02
2018-07-29T18:26:03.958Z,97757.20
2018-07-29T18:28:33.138Z,97755.81
2018-07-29T18:31:02.602Z,97751.17
2018-07-29T18:33:32.068Z,97754.03
2018-07-29T18:36:01.631Z,97756.11
2018-07-29T18:38:31.104Z,97763.70
2018-07-29T18:41:00.624Z,97764.38
2018-07-29T18:43:30.276Z,97771.05
2018-07-29T18:45:59.756Z,97767.96
2018-07-29T18:48:29.324Z,97766.91
2018-07-29T18:50:58.895Z,97768.72
2018-07-29T18:53:28.431Z,97773.23
2018-07-29T18:55:58.091Z,97773.73
2018-07-29T18:58:27.814Z,97771.77
2018-07-29T19:00:57.769Z,97785.94
2018-07-29T19:03:27.439Z,97783.53
2018-07-29T19:05:57.057Z,97782.61
2018-07-29T19:08:26.215Z,97780.68
2018-07-29T19:10:55.828Z,97787.05
2018-07-29T19:13:25.539Z,97787.44
2018-07-29T19:15:55.369Z,97788.88
2018-07-29T19:18:24.924Z,97787.52
2018-07-29T19:20:55.999Z,97797.51
2018-07-29T19:23:27.712Z,97797.66
2018-07-29T19:25:57.424Z,97796.77
2018-07-29T19:28:28.250Z,97797.42
2018-07-29T19:30:58.122Z,97803.30
2018-07-29T19:33:28.754Z,97801.61
2018-07-29T19:35:58.955Z,97814.41
2018-07-29T19:38:28.758Z,97811.06
2018-07-29T19:44:44.056Z,97825.55
2018-07-29T19:47:14.347Z,97830.44
2018-07-29T19:49:44.264Z,97832.48
2018-07-29T19:52:15.370Z,97834.14
2018-07-29T19:54:47.363Z,97838.20
2018-07-29T19:57:18.485Z,97842.70
2018-07-29T19:59:50.098Z,97844.83
2018-07-29T20:02:22.341Z,97844.63
2018-07-29T20:04:54.606Z,97846.39
2018-07-29T20:07:26.556Z,97848.14
2018-07-29T20:09:58.787Z,97852.23
2018-07-29T20:12:30.958Z,97849.60
2018-07-29T20:15:03.093Z,97855.14
2018-07-29T20:17:35.176Z,97854.73
2018-07-29T20:20:08.703Z,97853.97
2018-07-29T20:22:39.518Z,97857.02
2018-07-29T20:25:11.473Z,97855.23
2018-07-29T20:27:43.253Z,97861.14
2018-07-29T20:30:14.357Z,97866.03
2018-07-29T20:32:45.357Z,97865.19
2018-07-29T20:35:16.138Z,97867.52
2018-07-29T20:37:45.958Z,97867.45
2018-07-29T20:40:17.665Z,97864.94
2018-07-29T20:42:49.542Z,97866.30
2018-07-29T20:45:19.654Z,97865.75
2018-07-29T20:47:49.350Z,97868.39
2018-07-29T20:50:19.093Z,97867.66
2018-07-29T20:52:48.633Z,97867.66
2018-07-29T20:55:18.257Z,97871.68
2018-07-29T20:57:51.590Z,97874.61
2018-07-29T21:00:21.322Z,97873.80
2018-07-29T21:02:50.806Z,97872.52
2018-07-29T21:05:20.279Z,97870.26
2018-07-29T21:07:49.910Z,97871.56
2018-07-29T21:10:19.339Z,97871.10
2018-07-29T21:12:48.839Z,97882.65
2018-07-29T21:15:18.445Z,97880.42
2018-07-29T21:17:47.962Z,97881.55
2018-07-29T21:20:17.395Z,97885.68
2018-07-29T21:22:46.846Z,97879.61
2018-07-29T21:25:16.323Z,97877.14
2018-07-29T21:27:45.926Z,97884.73
2018-07-29T21:30:15.415Z,97878.73
2018-07-29T21:32:44.842Z,97882.47
2018-07-29T21:35:14.271Z,97882.86
2018-07-29T21:37:43.810Z,97883.09
2018-07-29T21:40:13.243Z,97890.09
2018-07-29T21:42:42.911Z,97892.14
2018-07-29T21:45:12.375Z,97892.59
2018-07-29T21:47:41.864Z,97890.53
2018-07-29T21:50:11.323Z,97888.59
2018-07-29T21:52:40.796Z,97891.59
2018-07-29T21:55:10.279Z,97892.67
2018-07-29T21:57:39.713Z,97894.72
2018-07-29T22:00:09.774Z,97902.25
2018-07-29T22:02:46.267Z,97898.96
2018-07-29T22:05:16.195Z,97897.72
2018-07-29T22:07:45.711Z,97903.52
2018-07-29T22:10:15.164Z,97909.16
2018-07-29T22:12:44.675Z,97903.64
2018-07-29T22:15:14.231Z,97908.81
2018-07-29T22:17:43.611Z,97908.08
2018-07-29T22:22:41.660Z,97913.45
2018-07-29T22:25:16.186Z,97904.20
2018-07-29T22:27:45.731Z,97910.36
2018-07-29T22:30:20.638Z,97911.44
2018-07-29T22:32:50.153Z,97921.19
2018-07-29T22:35:23.101Z,97919.56
2018-07-29T22:37:49.218Z,97919.26
2018-07-29T22:40:18.675Z,97924.09
2018-07-29T22:42:48.163Z,97926.18
2018-07-29T22:45:17.647Z,97923.50
2018-07-29T22:47:47.123Z,97923.69
2018-07-29T22:50:16.649Z,97923.22
2018-07-29T22:52:46.201Z,97927.44
2018-07-29T22:55:15.659Z,97919.53
2018-07-29T22:57:45.111Z,97925.95
2018-07-29T23:00:14.639Z,97922.52
2018-07-29T23:02:44.151Z,97922.29
2018-07-29T23:05:13.599Z,97925.20
2018-07-29T23:07:43.030Z,97929.27
2018-07-29T23:10:12.512Z,97928.27
2018-07-29T23:12:42.004Z,97932.70
2018-07-29T23:15:11.858Z,97926.27
2018-07-29T23:17:41.325Z,97931.02
2018-07-29T23:20:11.070Z,97931.73
2018-07-29T23:22:40.523Z,97931.95
2018-07-29T23:25:09.649Z,97931.34
2018-07-29T23:27:39.127Z,97932.48
2018-07-29T23:30:08.266Z,97935.17
2018-07-29T23:32:37.719Z,97936.99
2018-07-29T23:35:07.195Z,97939.55
2018-07-29T23:37:36.660Z,97935.46
2018-07-29T23:40:06.231Z,97934.16
2018-07-29T23:42:35.670Z,97938.06
2018-07-29T23:45:05.528Z,97933.09
2018-07-29T23:47:35.080Z,97932.86
2018-07-29T23:50:04.896Z,97939.38
2018-07-29T23:52:34.348Z,97931.30
2018-07-29T23:55:03.890Z,97934.41
2018-07-29T23:57:33.315Z,97935.94
